Time;durP1;ratioP1;P1;durP2;ratioP2;P2;SDS_P1;SDS_P2;PMS_P1;PMS_P2;Temp;Humidity;BMP_temperature;BMP_pressure;BME280_temperature;BME280_humidity;BME280_pressure;Samples;Min_cycle;Max_cycle;Signal;HPM_P1;HPM_P2
2021/03/10 00:01:10;;;;;;;12.55;8.18;;;;;;;;;;5093218;28;20658;-76
2021/03/10 00:03:37;;;;;;;10.70;6.60;;;;;;;;;;5089146;28;20214;-76
2021/03/10 00:06:05;;;;;;;12.85;6.90;;;;;;;;;;5089186;28;20207;-76
2021/03/10 00:08:32;;;;;;;10.23;6.70;;;;;;;;;;5091181;28;20292;-75
2021/03/10 00:10:59;;;;;;;16.58;9.95;;;;;;;;;;5090755;28;20235;-75
2021/03/10 00:13:26;;;;;;;17.10;10.25;;;;;;;;;;5090930;28;20315;-75
2021/03/10 00:15:53;;;;;;;12.48;8.35;;;;;;;;;;5092103;28;20556;-76
2021/03/10 00:18:20;;;;;;;15.05;8.95;;;;;;;;;;5092674;28;20719;-76
2021/03/10 00:20:47;;;;;;;11.13;7.65;;;;;;;;;;5093033;28;20292;-76
2021/03/10 00:23:14;;;;;;;11.90;8.20;;;;;;;;;;5092808;28;20311;-76
2021/03/10 00:25:40;;;;;;;14.65;10.02;;;;;;;;;;5088250;28;20200;-76
2021/03/10 00:28:09;;;;;;;11.98;8.30;;;;;;;;;;5088658;28;20275;-75
2021/03/10 00:30:37;;;;;;;10.00;7.78;;;;;;;;;;5087576;28;20197;-76
2021/03/10 00:33:04;;;;;;;14.00;7.78;;;;;;;;;;5089900;28;20197;-75
2021/03/10 00:35:31;;;;;;;8.30;7.13;;;;;;;;;;5088891;28;20517;-76
2021/03/10 00:37:59;;;;;;;6.22;5.40;;;;;;;;;;5087576;28;20214;-76
2021/03/10 00:40:25;;;;;;;8.30;6.22;;;;;;;;;;5088762;28;20204;-76
2021/03/10 00:42:52;;;;;;;7.25;6.28;;;;;;;;;;5089842;28;20208;-76
2021/03/10 00:45:19;;;;;;;9.52;6.70;;;;;;;;;;5090044;28;20200;-76
2021/03/10 00:47:47;;;;;;;8.93;7.30;;;;;;;;;;5090711;28;20279;-76
2021/03/10 00:50:15;;;;;;;9.27;7.35;;;;;;;;;;5091810;28;20269;-76
2021/03/10 00:52:42;;;;;;;8.18;6.50;;;;;;;;;;5091235;28;20196;-75
2021/03/10 00:55:09;;;;;;;8.57;6.80;;;;;;;;;;5092323;28;20311;-75
2021/03/10 00:57:36;;;;;;;9.18;6.20;;;;;;;;;;5092318;28;20534;-75
2021/03/10 01:00:04;;;;;;;10.15;6.93;;;;;;;;;;5088821;28;20557;-75
2021/03/10 01:02:30;;;;;;;8.15;6.18;;;;;;;;;;5088677;28;20224;-75
2021/03/10 01:04:58;;;;;;;9.80;7.25;;;;;;;;;;5089842;28;20219;-75
2021/03/10 01:07:25;;;;;;;8.35;6.38;;;;;;;;;;5090051;28;20208;-75
2021/03/10 01:09:52;;;;;;;7.82;6.70;;;;;;;;;;5089675;28;20211;-74
2021/03/10 01:12:19;;;;;;;7.32;6.25;;;;;;;;;;5090774;28;20193;-75
2021/03/10 01:14:45;;;;;;;8.02;6.40;;;;;;;;;;5092067;28;20312;-75
2021/03/10 01:17:12;;;;;;;10.45;6.57;;;;;;;;;;5092414;28;20216;-74
2021/03/10 01:19:39;;;;;;;6.90;6.20;;;;;;;;;;5092334;28;20193;-75
2021/03/10 01:22:07;;;;;;;10.60;6.72;;;;;;;;;;5089400;28;20202;-74
2021/03/10 01:24:34;;;;;;;10.52;7.03;;;;;;;;;;5088065;28;20298;-75
2021/03/10 01:27:01;;;;;;;10.50;7.50;;;;;;;;;;5089535;28;20299;-76
2021/03/10 01:29:27;;;;;;;7.60;6.60;;;;;;;;;;5090153;28;20258;-76
2021/03/10 01:31:54;;;;;;;7.47;6.40;;;;;;;;;;5090541;28;20277;-75
2021/03/10 01:34:21;;;;;;;11.65;7.90;;;;;;;;;;5091232;28;20221;-75
2021/03/10 01:36:48;;;;;;;12.65;7.30;;;;;;;;;;5093208;28;20225;-75
2021/03/10 01:39:16;;;;;;;9.13;8.00;;;;;;;;;;5095789;28;20646;-76
2021/03/10 01:41:42;;;;;;;9.65;6.75;;;;;;;;;;5095586;28;20226;-75
2021/03/10 01:44:09;;;;;;;15.27;6.88;;;;;;;;;;5093237;28;20220;-76
2021/03/10 01:46:40;;;;;;;11.18;8.23;;;;;;;;;;5091509;28;20643;-75
2021/03/10 01:49:07;;;;;;;9.63;7.78;;;;;;;;;;5093032;28;20205;-75
2021/03/10 01:51:34;;;;;;;12.40;6.93;;;;;;;;;;5092041;28;20203;-76
2021/03/10 01:54:01;;;;;;;8.63;7.45;;;;;;;;;;5093437;28;20223;-75
2021/03/10 01:56:29;;;;;;;8.15;7.22;;;;;;;;;;5094100;28;20539;-76
2021/03/10 01:58:56;;;;;;;9.65;7.80;;;;;;;;;;5095807;28;20215;-76
2021/03/10 02:01:23;;;;;;;9.30;7.45;;;;;;;;;;5095593;28;20207;-75
2021/03/10 02:03:50;;;;;;;11.60;6.68;;;;;;;;;;5095367;28;20318;-75
2021/03/10 02:06:21;;;;;;;9.02;7.93;;;;;;;;;;5092759;28;20292;-77
2021/03/10 02:08:54;;;;;;;9.73;7.47;;;;;;;;;;5091302;28;20221;-76
2021/03/10 02:11:25;;;;;;;10.80;8.30;;;;;;;;;;5092609;28;20236;-76
2021/03/10 02:14:00;;;;;;;11.02;7.65;;;;;;;;;;5091807;28;20217;-76
2021/03/10 02:16:30;;;;;;;11.32;8.20;;;;;;;;;;5091788;28;20276;-77
2021/03/10 02:19:02;;;;;;;11.10;7.18;;;;;;;;;;5093213;28;20204;-76
2021/03/10 02:21:33;;;;;;;11.05;7.68;;;;;;;;;;5095005;28;20207;-76
2021/03/10 02:24:11;;;;;;;9.18;7.40;;;;;;;;;;5095019;28;20249;-76
2021/03/10 02:26:45;;;;;;;9.13;7.68;;;;;;;;;;5095054;28;20206;-75
2021/03/10 02:29:14;;;;;;;10.63;7.88;;;;;;;;;;5089698;28;20200;-76
2021/03/10 02:31:44;;;;;;;8.73;7.32;;;;;;;;;;5089151;28;20204;-76
2021/03/10 02:34:12;;;;;;;7.80;7.00;;;;;;;;;;5092432;28;20213;-75
2021/03/10 02:36:40;;;;;;;8.02;7.20;;;;;;;;;;5091062;28;20223;-76
2021/03/10 02:39:08;;;;;;;9.80;7.68;;;;;;;;;;5092574;28;20291;-76
2021/03/10 02:41:35;;;;;;;9.80;7.55;;;;;;;;;;5090464;28;20673;-76
2021/03/10 02:44:03;;;;;;;10.00;7.15;;;;;;;;;;5090643;28;20219;-77
2021/03/10 02:46:31;;;;;;;8.20;7.40;;;;;;;;;;5092502;28;20192;-76
2021/03/10 02:48:59;;;;;;;8.68;7.25;;;;;;;;;;5091366;28;20193;-76
2021/03/10 02:51:26;;;;;;;8.35;7.32;;;;;;;;;;5092517;28;20276;-75
2021/03/10 02:53:53;;;;;;;8.63;7.43;;;;;;;;;;5093778;28;20230;-75
2021/03/10 02:56:20;;;;;;;8.10;7.20;;;;;;;;;;5094281;28;20607;-75
2021/03/10 02:58:47;;;;;;;8.05;6.35;;;;;;;;;;5094267;28;20244;-76
2021/03/10 03:01:14;;;;;;;8.05;7.25;;;;;;;;;;5093563;28;20609;-76
2021/03/10 03:03:42;;;;;;;8.50;7.05;;;;;;;;;;5089931;28;20627;-75
2021/03/10 03:06:09;;;;;;;7.70;6.55;;;;;;;;;;5090501;28;20196;-76
2021/03/10 03:08:36;;;;;;;8.23;7.40;;;;;;;;;;5092114;28;20690;-75
2021/03/10 03:11:04;;;;;;;8.85;7.60;;;;;;;;;;5091708;28;20255;-75
2021/03/10 03:13:32;;;;;;;9.30;7.82;;;;;;;;;;5092096;28;20273;-76
2021/03/10 03:15:59;;;;;;;8.50;6.18;;;;;;;;;;5093418;28;20568;-75
2021/03/10 03:18:27;;;;;;;10.18;7.95;;;;;;;;;;5092771;28;20224;-75
2021/03/10 03:20:55;;;;;;;10.50;6.38;;;;;;;;;;5094069;28;20199;-75
2021/03/10 03:23:24;;;;;;;8.45;7.10;;;;;;;;;;5092540;28;20916;-76
2021/03/10 03:25:51;;;;;;;7.68;6.68;;;;;;;;;;5090155;28;20247;-75
2021/03/10 03:28:19;;;;;;;9.20;6.93;;;;;;;;;;5089969;28;20242;-76
2021/03/10 03:30:47;;;;;;;8.57;6.60;;;;;;;;;;5091615;28;20204;-75
2021/03/10 03:33:16;;;;;;;9.35;7.75;;;;;;;;;;5090260;28;20532;-75
2021/03/10 03:35:43;;;;;;;7.93;7.10;;;;;;;;;;5091643;28;20246;-76
2021/03/10 03:38:11;;;;;;;11.32;7.80;;;;;;;;;;5092905;28;20255;-76
2021/03/10 03:40:38;;;;;;;11.45;8.05;;;;;;;;;;5093427;28;20193;-76
2021/03/10 03:43:07;;;;;;;9.63;7.93;;;;;;;;;;5093523;28;20261;-75
2021/03/10 03:45:35;;;;;;;9.68;7.78;;;;;;;;;;5092403;28;20630;-75
2021/03/10 03:48:01;;;;;;;12.10;8.95;;;;;;;;;;5088735;28;20287;-75
2021/03/10 03:50:29;;;;;;;11.32;9.57;;;;;;;;;;5089296;28;20710;-75
2021/03/10 03:52:56;;;;;;;12.30;9.63;;;;;;;;;;5090878;28;20288;-76
2021/03/10 03:55:24;;;;;;;11.80;8.70;;;;;;;;;;5089897;28;20200;-75
2021/03/10 03:57:51;;;;;;;14.20;10.50;;;;;;;;;;5091051;28;20759;-75
2021/03/10 04:00:20;;;;;;;12.40;8.82;;;;;;;;;;5092549;28;20243;-75
2021/03/10 04:02:47;;;;;;;13.45;10.00;;;;;;;;;;5093121;28;20197;-75
2021/03/10 04:05:14;;;;;;;11.20;9.25;;;;;;;;;;5091961;28;20215;-75
2021/03/10 04:07:49;;;;;;;10.60;9.50;;;;;;;;;;5093202;28;20204;-75
2021/03/10 04:10:16;;;;;;;11.75;9.93;;;;;;;;;;5089366;28;20277;-75
2021/03/10 04:12:43;;;;;;;13.95;9.93;;;;;;;;;;5089134;28;20232;-75
2021/03/10 04:15:11;;;;;;;13.73;11.25;;;;;;;;;;5090754;28;20241;-75
2021/03/10 04:17:38;;;;;;;13.30;10.45;;;;;;;;;;5090639;28;20704;-75
2021/03/10 04:20:07;;;;;;;16.05;10.32;;;;;;;;;;5090778;28;20289;-75
2021/03/10 04:22:34;;;;;;;14.10;10.68;;;;;;;;;;5092371;28;20232;-75
2021/03/10 04:25:01;;;;;;;15.18;11.57;;;;;;;;;;5092743;28;20272;-75
2021/03/10 04:27:28;;;;;;;18.70;11.25;;;;;;;;;;5092854;28;20215;-75
2021/03/10 04:29:55;;;;;;;16.52;12.27;;;;;;;;;;5092889;28;20660;-74
2021/03/10 04:32:22;;;;;;;16.83;11.75;;;;;;;;;;5085934;28;20236;-75
2021/03/10 04:34:49;;;;;;;17.52;12.07;;;;;;;;;;5088353;28;20266;-76
2021/03/10 04:37:16;;;;;;;15.40;12.00;;;;;;;;;;5089035;28;20227;-75
2021/03/10 04:39:43;;;;;;;15.00;12.02;;;;;;;;;;5090631;28;20291;-76
2021/03/10 04:42:10;;;;;;;16.05;11.75;;;;;;;;;;5090724;28;20288;-76
2021/03/10 04:44:37;;;;;;;17.33;12.27;;;;;;;;;;5092019;28;20723;-76
2021/03/10 04:47:05;;;;;;;20.05;13.10;;;;;;;;;;5092446;28;20193;-76
2021/03/10 04:49:32;;;;;;;15.35;12.15;;;;;;;;;;5092577;28;20210;-75
2021/03/10 04:51:59;;;;;;;16.50;12.85;;;;;;;;;;5092613;28;20195;-76
2021/03/10 04:54:26;;;;;;;17.75;12.75;;;;;;;;;;5088560;28;20260;-76
2021/03/10 04:56:52;;;;;;;17.88;13.93;;;;;;;;;;5088756;28;20215;-76
2021/03/10 04:59:19;;;;;;;18.88;14.20;;;;;;;;;;5090304;28;20219;-76
2021/03/10 05:01:46;;;;;;;19.00;14.00;;;;;;;;;;5089663;28;20210;-76
2021/03/10 05:04:14;;;;;;;24.42;14.85;;;;;;;;;;5090486;28;20223;-76
2021/03/10 05:06:41;;;;;;;19.17;13.18;;;;;;;;;;5091962;28;20261;-76
2021/03/10 05:09:08;;;;;;;18.45;13.70;;;;;;;;;;5092406;28;20208;-76
2021/03/10 05:11:35;;;;;;;19.65;14.27;;;;;;;;;;5093039;28;20650;-76
2021/03/10 05:14:02;;;;;;;19.60;13.80;;;;;;;;;;5096205;28;20252;-75
2021/03/10 05:16:29;;;;;;;19.35;12.90;;;;;;;;;;5091934;28;20287;-76
2021/03/10 05:18:55;;;;;;;18.08;13.10;;;;;;;;;;5092350;28;20205;-75
2021/03/10 05:21:23;;;;;;;18.67;14.30;;;;;;;;;;5094352;28;20207;-76
2021/03/10 05:23:50;;;;;;;21.27;13.73;;;;;;;;;;5093898;28;20239;-75
2021/03/10 05:26:17;;;;;;;20.25;15.13;;;;;;;;;;5094220;28;20197;-76
2021/03/10 05:28:44;;;;;;;20.15;14.38;;;;;;;;;;5094336;28;20245;-75
2021/03/10 05:31:11;;;;;;;18.17;14.48;;;;;;;;;;5096209;28;20540;-76
2021/03/10 05:33:38;;;;;;;22.05;14.82;;;;;;;;;;5096031;28;20307;-76
2021/03/10 05:36:05;;;;;;;20.48;15.00;;;;;;;;;;5095974;28;20607;-76
2021/03/10 05:38:33;;;;;;;20.92;15.30;;;;;;;;;;5092168;28;20223;-76
2021/03/10 05:41:00;;;;;;;21.80;16.75;;;;;;;;;;5091972;28;20201;-75
2021/03/10 05:43:27;;;;;;;22.33;16.58;;;;;;;;;;5093720;28;20600;-76
2021/03/10 05:45:54;;;;;;;21.35;15.48;;;;;;;;;;5093026;28;20313;-76
2021/03/10 05:48:21;;;;;;;20.73;16.20;;;;;;;;;;5087567;28;20193;-76
2021/03/10 05:50:48;;;;;;;24.90;17.13;;;;;;;;;;5090409;28;20247;-76
2021/03/10 05:53:16;;;;;;;24.98;16.55;;;;;;;;;;5090883;28;20219;-75
2021/03/10 05:55:44;;;;;;;23.48;16.15;;;;;;;;;;5092549;28;20227;-76
2021/03/10 05:58:12;;;;;;;23.02;16.90;;;;;;;;;;5093293;28;20281;-76
2021/03/10 06:00:43;;;;;;;22.08;15.43;;;;;;;;;;5093397;28;20203;-75
2021/03/10 06:03:10;;;;;;;26.90;17.33;;;;;;;;;;5093594;28;20224;-75
2021/03/10 06:05:36;;;;;;;22.98;17.17;;;;;;;;;;5095261;28;20200;-76
2021/03/10 06:08:04;;;;;;;25.60;17.77;;;;;;;;;;5095183;28;20246;-75
2021/03/10 06:10:39;;;;;;;23.50;16.75;;;;;;;;;;5094958;28;20225;-77
2021/03/10 06:13:18;;;;;;;23.98;16.40;;;;;;;;;;5094888;28;20283;-76
2021/03/10 06:15:45;;;;;;;20.73;15.20;;;;;;;;;;5089697;28;20250;-76
2021/03/10 06:18:21;;;;;;;25.00;18.23;;;;;;;;;;5091897;28;20299;-75
2021/03/10 06:20:48;;;;;;;24.92;17.00;;;;;;;;;;5091248;28;20719;-76
2021/03/10 06:23:16;;;;;;;23.85;16.48;;;;;;;;;;5090723;28;20686;-76
2021/03/10 06:25:43;;;;;;;25.73;17.33;;;;;;;;;;5093756;28;20200;-76
2021/03/10 06:28:11;;;;;;;22.90;15.52;;;;;;;;;;5094985;28;20558;-76
2021/03/10 06:30:39;;;;;;;21.30;15.75;;;;;;;;;;5094795;28;20215;-75
2021/03/10 06:33:07;;;;;;;25.60;17.48;;;;;;;;;;5089256;28;20292;-76
2021/03/10 06:35:35;;;;;;;26.77;18.25;;;;;;;;;;5089977;28;20290;-75
2021/03/10 06:38:10;;;;;;;25.10;18.67;;;;;;;;;;5090342;28;20231;-75
2021/03/10 06:40:47;;;;;;;22.88;16.88;;;;;;;;;;5091371;28;20287;-76
2021/03/10 06:43:14;;;;;;;23.40;16.33;;;;;;;;;;5092724;28;20314;-77
2021/03/10 06:45:41;;;;;;;27.15;17.33;;;;;;;;;;5093849;28;20288;-76
2021/03/10 06:48:16;;;;;;;27.58;19.83;;;;;;;;;;5094527;28;20192;-76
2021/03/10 06:50:43;;;;;;;24.85;16.85;;;;;;;;;;5094635;28;20292;-76
2021/03/10 06:53:10;;;;;;;23.67;17.75;;;;;;;;;;5094142;28;20224;-76
2021/03/10 06:55:37;;;;;;;22.05;17.20;;;;;;;;;;5092269;28;20205;-76
2021/03/10 06:58:04;;;;;;;23.20;15.98;;;;;;;;;;5089842;28;20217;-76
2021/03/10 07:00:32;;;;;;;24.60;17.95;;;;;;;;;;5091786;28;20340;-76
2021/03/10 07:03:00;;;;;;;23.38;16.08;;;;;;;;;;5091596;28;20203;-76
2021/03/10 07:05:27;;;;;;;26.55;16.67;;;;;;;;;;5092314;28;20288;-76
2021/03/10 07:07:54;;;;;;;25.80;17.48;;;;;;;;;;5093192;28;20284;-76
2021/03/10 07:10:21;;;;;;;27.05;17.85;;;;;;;;;;5091991;28;20277;-76
2021/03/10 07:12:48;;;;;;;24.33;16.63;;;;;;;;;;5093248;28;20228;-76
2021/03/10 07:15:15;;;;;;;24.70;16.67;;;;;;;;;;5090666;28;20189;-75
2021/03/10 07:17:43;;;;;;;24.10;16.80;;;;;;;;;;5089874;28;20262;-76
2021/03/10 07:20:10;;;;;;;29.20;18.20;;;;;;;;;;5087500;28;20451;-75
2021/03/10 07:22:39;;;;;;;27.52;18.30;;;;;;;;;;5091960;28;20725;-76
2021/03/10 07:25:08;;;;;;;24.88;16.63;;;;;;;;;;5091927;28;20312;-77
2021/03/10 07:27:38;;;;;;;28.35;16.70;;;;;;;;;;5092511;28;20622;-76
2021/03/10 07:30:06;;;;;;;26.25;17.05;;;;;;;;;;5091639;28;20189;-75
2021/03/10 07:32:33;;;;;;;25.42;17.45;;;;;;;;;;5092412;28;20201;-78
2021/03/10 07:35:02;;;;;;;26.25;17.67;;;;;;;;;;5093240;28;20315;-76
2021/03/10 07:37:29;;;;;;;25.92;17.33;;;;;;;;;;5092349;28;20267;-75
2021/03/10 07:40:06;;;;;;;22.33;16.45;;;;;;;;;;5086863;28;20288;-75
2021/03/10 07:42:33;;;;;;;26.13;16.30;;;;;;;;;;5090578;28;20205;-76
2021/03/10 07:44:59;;;;;;;27.60;18.00;;;;;;;;;;5090452;28;20240;-77
2021/03/10 07:47:26;;;;;;;25.60;16.73;;;;;;;;;;5091489;28;20226;-75
2021/03/10 07:49:57;;;;;;;24.15;16.83;;;;;;;;;;5091753;28;20351;-76
2021/03/10 07:52:26;;;;;;;27.80;18.80;;;;;;;;;;5092798;28;20205;-76
2021/03/10 07:54:57;;;;;;;28.77;17.88;;;;;;;;;;5093055;28;20555;-76
2021/03/10 07:57:24;;;;;;;25.25;17.38;;;;;;;;;;5086331;28;20762;-75
2021/03/10 07:59:54;;;;;;;25.98;17.20;;;;;;;;;;5093209;28;20300;-75
2021/03/10 08:02:22;;;;;;;26.10;17.27;;;;;;;;;;5089057;28;20281;-75
2021/03/10 08:04:56;;;;;;;28.70;18.33;;;;;;;;;;5088985;28;20214;-75
2021/03/10 08:07:23;;;;;;;25.85;17.15;;;;;;;;;;5089718;28;20210;-75
2021/03/10 08:09:51;;;;;;;27.50;18.80;;;;;;;;;;5089112;28;20286;-75
2021/03/10 08:12:19;;;;;;;27.20;18.27;;;;;;;;;;5091035;28;20194;-75
2021/03/10 08:14:46;;;;;;;28.15;16.83;;;;;;;;;;5092274;28;20548;-75
2021/03/10 08:17:22;;;;;;;25.48;17.30;;;;;;;;;;5092201;28;20213;-75
2021/03/10 08:19:52;;;;;;;31.63;17.38;;;;;;;;;;5091830;28;20243;-76
2021/03/10 08:22:20;;;;;;;26.55;17.63;;;;;;;;;;5091031;28;20185;-75
2021/03/10 08:24:47;;;;;;;33.03;18.67;;;;;;;;;;5087771;28;20745;-75
2021/03/10 08:27:15;;;;;;;22.92;15.57;;;;;;;;;;5088240;28;20276;-75
2021/03/10 08:29:49;;;;;;;26.55;16.73;;;;;;;;;;5090433;28;20658;-75
2021/03/10 08:32:23;;;;;;;25.25;17.00;;;;;;;;;;5087633;28;20296;-76
2021/03/10 08:34:50;;;;;;;25.08;16.00;;;;;;;;;;5087227;28;21090;-76
2021/03/10 08:37:17;;;;;;;27.58;18.30;;;;;;;;;;5086468;28;20582;-76
2021/03/10 08:39:44;;;;;;;30.52;18.00;;;;;;;;;;5086360;28;20301;-76
2021/03/10 08:42:11;;;;;;;25.17;17.08;;;;;;;;;;5089661;28;20289;-76
2021/03/10 08:44:40;;;;;;;28.42;18.17;;;;;;;;;;5073970;28;20218;-77
2021/03/10 08:47:11;;;;;;;31.65;18.02;;;;;;;;;;5089892;28;20284;-76
2021/03/10 08:49:38;;;;;;;27.77;17.85;;;;;;;;;;5092485;28;20289;-76
2021/03/10 08:52:07;;;;;;;26.88;18.27;;;;;;;;;;5092464;28;20296;-76
2021/03/10 08:54:33;;;;;;;30.80;18.42;;;;;;;;;;5091768;28;20264;-76
2021/03/10 08:57:00;;;;;;;27.90;17.30;;;;;;;;;;5091358;28;20249;-77
2021/03/10 08:59:35;;;;;;;33.53;19.85;;;;;;;;;;5081412;28;20219;-76
2021/03/10 09:02:03;;;;;;;25.42;16.83;;;;;;;;;;5087081;28;20277;-76
2021/03/10 09:04:30;;;;;;;29.63;19.50;;;;;;;;;;5088783;28;20312;-76
2021/03/10 09:06:57;;;;;;;26.92;18.30;;;;;;;;;;5090032;28;20199;-75
2021/03/10 09:09:24;;;;;;;25.95;18.25;;;;;;;;;;5089160;28;20191;-74
2021/03/10 09:11:52;;;;;;;23.50;17.08;;;;;;;;;;5088170;28;20227;-75
2021/03/10 09:14:19;;;;;;;27.50;18.27;;;;;;;;;;5091775;28;20218;-75
2021/03/10 09:16:54;;;;;;;26.02;17.40;;;;;;;;;;5091896;28;20649;-75
2021/03/10 09:19:35;;;;;;;26.65;16.42;;;;;;;;;;5091011;28;20457;-76
2021/03/10 09:22:17;;;;;;;29.20;17.38;;;;;;;;;;5086902;28;20290;-76
2021/03/10 09:24:53;;;;;;;26.60;18.38;;;;;;;;;;5087171;28;20307;-75
2021/03/10 09:27:21;;;;;;;26.60;19.60;;;;;;;;;;5089028;28;20287;-75
2021/03/10 09:29:48;;;;;;;27.50;17.73;;;;;;;;;;5090068;28;20197;-75
2021/03/10 09:32:15;;;;;;;29.10;18.93;;;;;;;;;;5090141;28;20470;-75
2021/03/10 09:34:42;;;;;;;25.90;18.30;;;;;;;;;;5090913;28;20917;-74
2021/03/10 09:37:09;;;;;;;26.00;19.03;;;;;;;;;;5091595;28;20520;-76
2021/03/10 09:39:46;;;;;;;28.90;19.87;;;;;;;;;;5091542;28;20943;-75
2021/03/10 09:42:14;;;;;;;30.73;20.10;;;;;;;;;;5091605;28;21009;-74
2021/03/10 09:44:41;;;;;;;30.67;19.80;;;;;;;;;;5087392;28;20541;-75
2021/03/10 09:47:13;;;;;;;31.97;21.20;;;;;;;;;;5086759;28;20827;-75
2021/03/10 09:49:44;;;;;;;32.23;21.23;;;;;;;;;;5089604;28;20878;-75
2021/03/10 09:52:11;;;;;;;34.83;21.57;;;;;;;;;;5089648;28;20529;-75
2021/03/10 09:54:48;;;;;;;30.13;20.17;;;;;;;;;;5090068;28;20498;-75
2021/03/10 09:57:21;;;;;;;34.50;21.27;;;;;;;;;;5090447;28;20562;-77
2021/03/10 09:59:48;;;;;;;32.97;21.77;;;;;;;;;;5095021;28;20519;-76
2021/03/10 10:02:15;;;;;;;33.27;21.13;;;;;;;;;;5095498;28;20844;-76
2021/03/10 10:04:42;;;;;;;33.07;21.93;;;;;;;;;;5095352;28;20467;-76
2021/03/10 10:07:11;;;;;;;33.93;21.43;;;;;;;;;;5092254;28;20825;-75
2021/03/10 10:09:38;;;;;;;33.97;23.67;;;;;;;;;;5089385;28;20440;-77
2021/03/10 10:12:06;;;;;;;30.20;19.70;;;;;;;;;;5092658;28;20538;-76
2021/03/10 10:14:34;;;;;;;30.60;22.13;;;;;;;;;;5092716;28;20550;-74
2021/03/10 10:17:01;;;;;;;30.37;21.27;;;;;;;;;;5093065;28;20443;-75
2021/03/10 10:19:28;;;;;;;26.10;20.10;;;;;;;;;;5092361;28;20934;-75
2021/03/10 10:21:54;;;;;;;31.47;20.53;;;;;;;;;;5094403;28;20530;-75
2021/03/10 10:24:21;;;;;;;33.80;21.50;;;;;;;;;;5094909;28;20549;-75
2021/03/10 10:26:48;;;;;;;30.83;19.90;;;;;;;;;;5094112;28;20530;-76
2021/03/10 10:29:15;;;;;;;30.37;21.70;;;;;;;;;;5094632;28;20449;-76
2021/03/10 10:31:43;;;;;;;33.53;21.70;;;;;;;;;;5088671;28;20530;-75
2021/03/10 10:34:10;;;;;;;31.43;20.37;;;;;;;;;;5088642;28;20637;-76
2021/03/10 10:36:37;;;;;;;30.30;21.03;;;;;;;;;;5091609;28;20901;-76
2021/03/10 10:39:04;;;;;;;29.50;20.73;;;;;;;;;;5090289;28;20579;-76
2021/03/10 10:41:31;;;;;;;32.33;21.83;;;;;;;;;;5091061;28;20477;-76
2021/03/10 10:43:57;;;;;;;33.57;21.70;;;;;;;;;;5089585;28;20459;-76
2021/03/10 10:46:24;;;;;;;31.67;21.00;;;;;;;;;;5090635;28;20447;-76
2021/03/10 10:48:52;;;;;;;30.13;19.87;;;;;;;;;;5092479;28;20466;-76
2021/03/10 10:51:21;;;;;;;33.60;21.43;;;;;;;;;;5092190;28;20522;-76
2021/03/10 10:53:48;;;;;;;27.43;20.47;;;;;;;;;;5091844;28;20463;-77
2021/03/10 10:56:15;;;;;;;27.80;19.67;;;;;;;;;;5093750;28;20491;-76
2021/03/10 10:58:42;;;;;;;31.20;21.70;;;;;;;;;;5094318;28;20539;-76
2021/03/10 11:01:09;;;;;;;26.13;19.63;;;;;;;;;;5094418;28;20522;-75
2021/03/10 11:03:36;;;;;;;34.57;21.00;;;;;;;;;;5093815;28;20456;-75
2021/03/10 11:06:03;;;;;;;29.40;21.60;;;;;;;;;;5091558;28;20458;-76
2021/03/10 11:08:30;;;;;;;27.93;20.23;;;;;;;;;;5089777;28;21003;-76
2021/03/10 11:10:57;;;;;;;29.03;21.60;;;;;;;;;;5089866;28;20558;-76
2021/03/10 11:13:24;;;;;;;27.10;19.70;;;;;;;;;;5091389;28;20466;-73
2021/03/10 11:15:51;;;;;;;27.83;19.30;;;;;;;;;;5091802;28;20478;-75
2021/03/10 11:18:18;;;;;;;30.37;20.30;;;;;;;;;;5092550;28;20514;-75
2021/03/10 11:20:44;;;;;;;29.47;20.50;;;;;;;;;;5073451;28;21019;-75
2021/03/10 11:23:12;;;;;;;26.30;19.00;;;;;;;;;;5093341;28;20499;-75
2021/03/10 11:25:39;;;;;;;26.03;19.30;;;;;;;;;;5093499;28;20487;-75
2021/03/10 11:28:06;;;;;;;29.17;18.20;;;;;;;;;;5093338;28;20530;-76
2021/03/10 11:30:33;;;;;;;21.47;17.57;;;;;;;;;;5089419;28;20478;-76
2021/03/10 11:33:00;;;;;;;28.53;21.03;;;;;;;;;;5090085;28;20534;-76
2021/03/10 11:35:27;;;;;;;26.33;18.37;;;;;;;;;;5091483;28;20940;-76
2021/03/10 11:37:54;;;;;;;26.27;18.37;;;;;;;;;;5089765;28;20510;-76
2021/03/10 11:40:22;;;;;;;19.97;14.70;;;;;;;;;;5091751;28;20512;-76
2021/03/10 11:42:49;;;;;;;19.87;14.90;;;;;;;;;;5092332;28;20522;-76
2021/03/10 11:45:16;;;;;;;20.80;15.13;;;;;;;;;;5093159;28;20484;-76
2021/03/10 11:47:43;;;;;;;19.30;14.47;;;;;;;;;;5093306;28;20526;-75
2021/03/10 11:50:11;;;;;;;18.53;13.33;;;;;;;;;;5093144;28;20471;-75
2021/03/10 11:52:37;;;;;;;17.53;12.40;;;;;;;;;;5090222;28;20999;-75
2021/03/10 11:55:05;;;;;;;11.77;8.53;;;;;;;;;;5088586;28;20486;-75
2021/03/10 11:57:33;;;;;;;11.13;6.90;;;;;;;;;;5090553;28;20474;-75
2021/03/10 11:59:59;;;;;;;6.97;5.83;;;;;;;;;;5090899;28;21154;-75
2021/03/10 12:02:26;;;;;;;7.00;5.87;;;;;;;;;;5091284;28;20873;-74
2021/03/10 12:04:53;;;;;;;9.03;5.30;;;;;;;;;;5092078;28;20558;-75
2021/03/10 12:07:20;;;;;;;9.43;6.47;;;;;;;;;;5092779;28;20474;-75
2021/03/10 12:09:47;;;;;;;7.00;5.33;;;;;;;;;;5092717;28;20439;-75
2021/03/10 12:12:13;;;;;;;9.30;5.63;;;;;;;;;;5092530;28;20526;-76
2021/03/10 12:14:41;;;;;;;7.17;5.57;;;;;;;;;;5091091;28;20880;-75
2021/03/10 12:17:08;;;;;;;7.00;5.40;;;;;;;;;;5087511;28;20523;-75
2021/03/10 12:19:35;;;;;;;8.00;6.20;;;;;;;;;;5090060;28;20526;-76
2021/03/10 12:22:02;;;;;;;8.60;6.27;;;;;;;;;;5090716;28;20805;-75
2021/03/10 12:24:29;;;;;;;7.33;5.93;;;;;;;;;;5090424;28;20487;-76
2021/03/10 12:26:56;;;;;;;7.77;6.23;;;;;;;;;;5091458;28;20542;-77
2021/03/10 12:29:23;;;;;;;7.23;6.20;;;;;;;;;;5092640;28;20454;-76
2021/03/10 12:31:50;;;;;;;8.00;6.80;;;;;;;;;;5092191;28;20530;-75
2021/03/10 12:34:17;;;;;;;9.07;6.70;;;;;;;;;;5088939;28;20569;-75
2021/03/10 12:36:44;;;;;;;8.40;5.80;;;;;;;;;;5087601;28;21166;-76
2021/03/10 12:39:11;;;;;;;8.20;7.17;;;;;;;;;;5088033;28;20477;-76
2021/03/10 12:41:38;;;;;;;11.00;6.33;;;;;;;;;;5089649;28;20469;-77
2021/03/10 12:44:05;;;;;;;8.67;7.00;;;;;;;;;;5090198;28;20566;-76
2021/03/10 12:46:32;;;;;;;9.97;7.70;;;;;;;;;;5090768;28;20574;-76
2021/03/10 12:49:00;;;;;;;7.33;6.50;;;;;;;;;;5091587;28;20911;-77
2021/03/10 12:51:27;;;;;;;11.00;7.63;;;;;;;;;;5091523;28;20538;-76
2021/03/10 12:53:54;;;;;;;10.67;7.60;;;;;;;;;;5092169;28;20462;-75
2021/03/10 12:56:21;;;;;;;10.37;7.17;;;;;;;;;;5092082;28;20448;-75
2021/03/10 12:58:48;;;;;;;7.33;6.13;;;;;;;;;;5088565;28;20559;-76
2021/03/10 13:01:14;;;;;;;9.33;7.10;;;;;;;;;;5088406;28;20436;-76
2021/03/10 13:03:41;;;;;;;8.87;7.50;;;;;;;;;;5089697;28;20543;-76
2021/03/10 13:06:09;;;;;;;9.70;6.70;;;;;;;;;;5089826;28;20867;-76
2021/03/10 13:08:36;;;;;;;9.33;7.60;;;;;;;;;;5090660;28;20450;-75
2021/03/10 13:11:03;;;;;;;8.27;6.80;;;;;;;;;;5091097;28;20570;-75
2021/03/10 13:13:30;;;;;;;7.77;6.97;;;;;;;;;;5092291;28;20527;-76
2021/03/10 13:15:57;;;;;;;9.93;7.43;;;;;;;;;;5092297;28;20475;-76
2021/03/10 13:18:24;;;;;;;9.57;8.10;;;;;;;;;;5092243;28;20566;-76
2021/03/10 13:20:50;;;;;;;9.37;7.23;;;;;;;;;;5086531;28;20439;-75
2021/03/10 13:23:18;;;;;;;9.63;7.97;;;;;;;;;;5087152;28;20498;-76
2021/03/10 13:25:45;;;;;;;10.70;7.77;;;;;;;;;;5089127;28;20530;-75
2021/03/10 13:28:12;;;;;;;8.97;6.80;;;;;;;;;;5089195;28;21135;-76
2021/03/10 13:30:39;;;;;;;10.20;7.57;;;;;;;;;;5089458;28;20447;-75
2021/03/10 13:33:06;;;;;;;12.13;7.57;;;;;;;;;;5088682;28;20530;-75
2021/03/10 13:35:33;;;;;;;8.73;7.70;;;;;;;;;;5088340;28;20485;-75
2021/03/10 13:37:59;;;;;;;12.50;8.93;;;;;;;;;;5091593;28;20504;-75
2021/03/10 13:40:27;;;;;;;9.30;7.50;;;;;;;;;;5092434;28;20538;-75
2021/03/10 13:42:54;;;;;;;11.37;8.00;;;;;;;;;;5092551;28;20445;-76
2021/03/10 13:45:21;;;;;;;13.23;8.47;;;;;;;;;;5092800;28;20535;-75
2021/03/10 13:47:47;;;;;;;11.33;8.50;;;;;;;;;;5091163;28;20840;-76
2021/03/10 13:50:14;;;;;;;11.30;8.23;;;;;;;;;;5087467;28;20492;-76
2021/03/10 13:52:41;;;;;;;13.00;8.80;;;;;;;;;;5089493;28;20969;-75
2021/03/10 13:55:09;;;;;;;11.17;9.23;;;;;;;;;;5089726;28;20455;-77
2021/03/10 13:57:37;;;;;;;13.93;8.50;;;;;;;;;;5090095;28;20479;-78
2021/03/10 14:00:04;;;;;;;12.17;8.57;;;;;;;;;;5090676;28;20907;-76
2021/03/10 14:02:31;;;;;;;11.33;8.10;;;;;;;;;;5091468;28;20451;-81
2021/03/10 14:04:58;;;;;;;10.73;8.60;;;;;;;;;;5091679;28;20484;-75
2021/03/10 14:07:25;;;;;;;9.97;7.97;;;;;;;;;;5091729;28;20541;-77
2021/03/10 14:09:52;;;;;;;10.63;8.20;;;;;;;;;;5091217;28;20601;-76
2021/03/10 14:12:19;;;;;;;10.30;8.03;;;;;;;;;;5087156;28;20444;-76
2021/03/10 14:14:46;;;;;;;11.13;8.40;;;;;;;;;;5088064;28;20556;-76
2021/03/10 14:17:13;;;;;;;12.93;9.80;;;;;;;;;;5089923;28;20851;-75
2021/03/10 14:19:40;;;;;;;12.43;9.03;;;;;;;;;;5090331;28;20908;-76
2021/03/10 14:22:07;;;;;;;10.87;8.37;;;;;;;;;;5091322;28;20530;-77
2021/03/10 14:24:34;;;;;;;10.63;8.30;;;;;;;;;;5094075;28;20502;-77
2021/03/10 14:27:01;;;;;;;11.90;8.20;;;;;;;;;;5094669;28;20483;-77
2021/03/10 14:29:28;;;;;;;11.20;8.50;;;;;;;;;;5093310;28;20522;-78